Latest Weather Observations for Cressy

IDT60801

Issued at 3:32 pm EST Friday 29 July 2016 (issued every 30 minutes, with the page automatically refreshed every 10 minutes)

About weather observations | Map of weather stations | Latest weather observations for TAS | Other Formats
Station Details ID: 091306 Name: CRESSY RESEARCH STATION Lat: -41.73 Lon: 147.08 Height: 148.0 m
Data from the previous 72 hours. | See also: Recent months at Cressy
Date/Time
EST
Temp
°C
App
Temp
°C
Dew
Point
°C
Rel
Hum
%
Delta-T
°C
Wind Press
QNH
hPa
Press
MSL
hPa
Rain since
9am
mm
Dir  Spd
km/h
Gust
km/h
Spd
kts
Gust
kts
29/03:30pm 12.4 5.9 6.7 68 2.7 NNW 30 37 16 20 - - 0.0
29/03:00pm 12.5 5.3 5.2 61 3.4 NW 32 41 17 22 - - 0.0
29/02:30pm 13.2 6.7 4.6 56 4.0 NW 28 43 15 23 - - 0.0
29/02:00pm 13.5 8.6 4.1 53 4.3 WNW 19 32 10 17 - - 0.0
29/01:30pm 13.9 7.2 3.7 50 4.7 W 28 39 15 21 - - 0.0
29/01:00pm 13.7 6.7 5.8 59 3.8 NW 32 46 17 25 - - 0.0
29/12:54pm 13.7 6.9 6.8 63 3.4 NW 32 50 17 27 - - 0.0
29/12:30pm 13.7 6.2 6.3 61 3.6 NW 35 44 19 24 - - 0.0
29/12:00pm 13.8 6.4 4.9 55 4.2 NW 33 52 18 28 - - 0.0
29/11:58am 13.7 6.4 5.6 58 3.8 NW 33 52 18 28 - - 0.0
29/11:30am 13.5 6.9 5.9 60 3.6 NW 30 39 16 21 - - 0.0
29/11:00am 12.4 5.4 6.7 68 2.7 NNW 33 44 18 24 - - 0.0
29/10:30am 11.8 4.9 7.1 73 2.3 NNW 33 43 18 23 - - 0.0
29/10:00am 10.8 3.8 6.2 73 2.2 NNW 32 39 17 21 - - 0.0
29/09:30am 9.9 3.0 6.3 78 1.7 N 32 43 17 23 - - 0.0
29/09:00am 9.2 3.0 6.1 81 1.4 N 28 35 15 19 - - 0.0
29/08:30am 8.6 2.7 5.9 83 1.2 N 26 33 14 18 - - 0.0
29/08:00am 8.0 2.1 5.6 85 1.1 N 26 33 14 18 - - 0.0
29/07:30am 7.5 2.3 5.3 86 1.0 N 22 32 12 17 - - 0.0
29/07:00am 7.7 2.2 5.7 87 0.9 N 24 35 13 19 - - 0.0
29/06:30am 7.6 2.4 5.7 88 0.9 N 22 30 12 16 - - 0.0
29/06:00am 8.0 2.5 6.0 87 0.9 N 24 32 13 17 - - 0.0
29/05:30am 8.1 2.6 6.1 87 0.9 N 24 33 13 18 - - 0.0
29/05:00am 7.8 2.3 6.1 89 0.8 N 24 33 13 18 - - 0.0
29/04:30am 7.5 2.0 5.8 89 0.8 N 24 32 13 17 - - 0.0
29/04:00am 7.5 1.9 5.6 88 0.9 N 24 30 13 16 - - 0.0
29/03:30am 7.3 1.7 5.6 89 0.8 N 24 32 13 17 - - 0.0
29/03:00am 7.7 1.8 6.0 89 0.8 N 26 32 14 17 - - 0.0
29/02:30am 7.7 1.5 6.0 89 0.8 N 28 33 15 18 - - 0.0
29/02:00am 7.7 1.1 6.0 89 0.8 N 30 37 16 20 - - 0.0
29/01:30am 7.3 1.0 5.6 89 0.8 N 28 35 15 19 - - 0.0
29/01:00am 7.0 0.2 5.0 87 0.9 NNW 30 37 16 20 - - 0.0
29/12:30am 7.3 0.1 4.8 84 1.1 NNW 32 39 17 21 - - 0.0
29/12:00am 7.4 0.1 4.4 81 1.3 NNW 32 39 17 21 - - 0.0
 
Date/Time
EST
Temp
°C
App
Temp
°C
Dew
Point
°C
Rel
Hum
%
Delta-T
°C
Wind Press
QNH
hPa
Press
MSL
hPa
Rain since
9am
mm
Dir  Spd
km/h
Gust
km/h
Spd
kts
Gust
kts
28/11:30pm 7.5 0.5 3.9 78 1.6 NNW 30 37 16 20 - - 0.0
28/11:00pm 7.5 0.8 3.7 77 1.6 NNW 28 35 15 19 - - 0.0
28/10:30pm 7.7 1.1 4.3 79 1.5 NNW 28 35 15 19 - - 0.0
28/10:00pm 7.6 1.9 4.7 82 1.3 NNW 24 32 13 17 - - 0.0
28/09:30pm 8.0 1.2 4.9 81 1.4 NNW 30 37 16 20 - - 0.0
28/09:00pm 8.0 1.9 4.8 80 1.4 NNW 26 32 14 17 - - 0.0
28/08:30pm 8.3 1.7 4.3 76 1.8 NNW 28 37 15 20 - - 0.0
28/08:00pm 8.4 2.5 4.0 74 1.9 NNW 24 28 13 15 - - 0.0
28/07:30pm 8.6 3.1 3.8 72 2.1 NNW 22 28 12 15 - - 0.0
28/07:00pm 9.4 3.8 3.4 66 2.6 NW 22 30 12 16 - - 0.0
28/06:30pm 9.7 4.5 3.7 66 2.6 NW 20 28 11 15 - - 0.0
28/06:00pm 10.3 5.6 3.1 61 3.1 W 17 26 9 14 - - 0.0
28/05:30pm 10.7 5.9 4.6 66 2.8 NNW 19 24 10 13 - - 0.0
28/05:00pm 11.7 7.6 4.2 60 3.4 NNE 15 19 8 10 - - 0.0
28/04:30pm 11.9 8.0 3.4 56 3.8 N 13 20 7 11 - - 0.0
28/04:00pm 13.6 8.4 3.7 51 4.5 WNW 20 30 11 16 - - 0.0
28/03:30pm 13.9 8.8 3.9 51 4.6 W 20 30 11 16 - - 0.0
28/03:00pm 14.5 7.6 2.7 45 5.3 W 28 43 15 23 - - 0.0
28/02:35pm 14.7 7.6 1.3 40 5.8 W 28 46 15 25 - - 0.0
28/02:30pm 14.8 8.5 3.9 48 5.0 W 26 35 14 19 - - 0.0
28/02:00pm 15.0 9.2 4.4 49 5.0 W 24 33 13 18 - - 0.0
28/01:30pm 14.9 8.3 4.3 49 4.9 WNW 28 35 15 19 - - 0.0
28/01:00pm 14.8 8.9 5.6 54 4.4 NW 26 39 14 21 - - 0.0
28/12:30pm 14.9 8.2 5.7 54 4.4 NW 30 44 16 24 - - 0.0
28/12:00pm 15.0 8.9 6.6 57 4.1 NW 28 37 15 20 - - 0.0
28/11:30am 14.1 9.0 6.0 58 3.9 WNW 22 32 12 17 - - 0.0
28/11:00am 14.0 8.5 6.1 59 3.8 NW 24 44 13 24 - - 0.0
28/10:30am 13.1 8.0 5.8 61 3.5 NW 22 33 12 18 - - 0.0
28/10:00am 12.9 7.0 6.0 63 3.3 NW 26 41 14 22 - - 0.0
28/09:30am 12.7 6.8 5.6 62 3.3 NW 26 33 14 18 - - 0.0
28/09:00am 12.2 7.0 5.6 64 3.1 NNW 22 30 12 16 - - 0.0
28/08:30am 11.2 4.8 5.3 67 2.7 NNW 28 35 15 19 - - 0.0
28/08:00am 10.3 5.4 5.1 70 2.4 NW 20 30 11 16 - - 0.0
28/07:30am 9.9 4.2 5.1 72 2.2 NW 24 37 13 20 - - 0.0
28/07:00am 9.3 3.7 5.3 76 1.8 NNW 24 35 13 19 - - 0.0
28/06:30am 8.3 3.4 5.2 81 1.4 NNW 20 33 11 18 - - 0.0
28/06:00am 8.6 2.6 5.2 79 1.5 N 26 35 14 19 - - 0.0
28/05:30am 8.6 2.1 4.6 76 1.8 NNW 28 41 15 22 - - 0.0
28/05:00am 8.4 2.5 4.0 74 1.9 N 24 32 13 17 - - 0.0
28/04:30am 7.5 2.3 3.7 77 1.6 NNW 20 28 11 15 - - 0.0
28/04:00am 7.7 3.0 3.2 73 1.9 NNW 17 22 9 12 - - 0.0
28/03:30am 8.7 2.6 2.9 67 2.5 NNW 24 37 13 20 - - 0.0
28/03:10am 11.1 3.0 1.1 50 4.2 NNW 33 54 18 29 - - 0.0
28/03:00am 9.3 3.1 2.4 62 2.9 NNW 24 39 13 21 - - 0.0
28/02:38am 10.0 3.0 1.9 57 3.4 NNW 28 46 15 25 - - 0.0
28/02:30am 8.0 2.7 3.1 71 2.1 NNW 20 32 11 17 - - 0.0
28/02:00am 7.5 2.2 3.0 73 1.9 NNW 20 26 11 14 - - 0.0
28/01:30am 7.6 2.3 2.9 72 2.0 N 20 28 11 15 - - 0.0
28/01:00am 7.2 2.3 1.9 69 2.2 N 17 22 9 12 - - 0.0
28/12:30am 9.7 4.1 0.9 54 3.6 WNW 20 28 11 15 - - 0.0
28/12:00am 9.9 2.8 1.3 55 3.6 W 28 41 15 22 - - 0.0
 
Date/Time
EST
Temp
°C
App
Temp
°C
Dew
Point
°C
Rel
Hum
%
Delta-T
°C
Wind Press
QNH
hPa
Press
MSL
hPa
Rain since
9am
mm
Dir  Spd
km/h
Gust
km/h
Spd
kts
Gust
kts
27/11:38pm 10.6 2.7 0.9 51 4.0 W 32 50 17 27 - - 0.0
27/11:30pm 10.4 2.9 1.2 53 3.8 W 30 44 16 24 - - 0.0
27/11:00pm 9.9 3.0 2.3 59 3.2 W 28 44 15 24 - - 0.0
27/10:30pm 9.8 4.1 2.9 62 3.0 W 22 35 12 19 - - 0.0
27/10:00pm 5.5 2.2 2.5 81 1.2 N 9 11 5 6 - - 0.0
27/09:30pm 7.1 2.3 4.4 83 1.2 NW 19 26 10 14 - - 0.0
27/09:00pm 6.7 1.2 4.2 84 1.1 NNW 22 28 12 15 - - 0.0
27/08:30pm 8.1 0.8 4.3 77 1.7 NW 32 39 17 21 - - 0.0
27/08:00pm 7.5 2.4 3.2 74 1.8 NNW 19 28 10 15 - - 0.0
27/07:30pm 8.9 2.4 2.9 66 2.6 WNW 26 33 14 18 - - 0.0
27/07:00pm 7.1 1.0 2.8 74 1.8 NNW 24 32 13 17 - - 0.0
27/06:30pm 7.3 0.4 2.4 71 2.0 N 28 39 15 21 - - 0.0
27/06:00pm 7.5 0.5 2.0 68 2.3 N 28 43 15 23 - - 0.0
27/05:30pm 7.7 0.3 2.0 67 2.4 N 30 41 16 22 - - 0.0
27/05:00pm 7.9 0.1 1.5 64 2.6 NNW 32 44 17 24 - - 0.0
27/04:30pm 8.2 0.3 2.2 66 2.5 NNW 33 46 18 25 - - 0.0
27/04:00pm 8.5 0.2 2.3 65 2.6 NW 35 46 19 25 - - 0.0
27/03:30pm 9.3 1.6 2.2 61 3.0 NW 32 43 17 23 - - 0.0
27/03:00pm 9.4 2.1 2.3 61 3.0 NW 30 41 16 22 - - 0.0
27/02:30pm 9.8 2.2 2.6 61 3.1 NNW 32 39 17 21 - - 0.0
27/02:00pm 10.0 4.2 2.4 59 3.3 N 22 32 12 17 - - 0.0
27/01:30pm 9.5 2.8 1.4 57 3.4 NNW 26 32 14 17 - - 0.0
27/01:00pm 9.2 3.0 -0.1 52 3.7 NNW 22 30 12 16 - - 0.0
27/12:30pm 9.2 3.3 1.4 58 3.2 NW 22 32 12 17 - - 0.0
27/12:00pm 8.9 1.2 -0.4 52 3.7 W 30 44 16 24 - - 0.0
27/11:30am 8.8 2.6 -0.5 52 3.7 W 22 35 12 19 - - 0.0
27/11:00am 8.7 3.9 0.2 55 3.4 W 15 24 8 13 - - 0.0
27/10:30am 8.0 2.1 -2.3 48 3.9 WSW 19 32 10 17 - - 0.0
27/10:00am 8.0 3.0 -1.2 52 3.5 W 15 19 8 10 - - 0.0
27/09:30am 7.5 3.1 -2.5 49 3.7 WSW 11 15 6 8 - - 0.0
27/09:00am 6.3 2.5 -1.1 59 2.8 NW 9 13 5 7 - - 2.0
27/08:30am 6.5 2.9 -1.9 55 3.1 W 7 11 4 6 - - 2.0
27/08:00am 5.7 2.1 -1.9 58 2.8 SSE 7 17 4 9 - - 2.0
27/07:30am 4.8 0.2 -1.2 65 2.2 SE 13 17 7 9 - - 2.0
27/07:00am 5.6 -0.2 -1.3 61 2.6 SE 19 26 10 14 - - 2.0
27/06:30am 5.3 1.1 1.4 76 1.6 SW 13 19 7 10 - - 2.0
27/06:00am 5.4 2.0 4.1 91 0.6 N 11 24 6 13 - - 2.0
27/05:30am 5.2 1.8 4.0 92 0.5 NE 11 15 6 8 - - 2.0
27/05:00am 5.3 2.7 4.1 92 0.5 WNW 7 11 4 6 - - 2.0
27/04:30am 5.3 1.2 4.3 93 0.4 NNW 15 28 8 15 - - 2.0
27/04:00am 5.3 -0.5 4.3 93 0.4 NNW 24 30 13 16 - - 2.0
27/03:30am 4.6 -1.0 3.7 94 0.4 NNW 22 26 12 14 - - 2.0
27/03:00am 4.7 -2.0 3.7 93 0.4 NNW 28 35 15 19 - - 2.0
27/02:30am 4.4 -2.3 3.4 93 0.4 NNW 28 33 15 18 - - 2.0
27/02:00am 4.5 -1.9 3.2 91 0.5 N 26 33 14 18 - - 2.0
27/01:30am 4.4 -0.9 2.9 90 0.6 N 20 28 11 15 - - 2.0
27/01:00am 4.5 -3.3 2.7 88 0.7 NNW 33 43 18 23 - - 2.0
27/12:30am 5.3 -3.1 3.5 88 0.8 NNW 37 50 20 27 - - 1.8
27/12:00am 5.3 -1.7 4.3 93 0.4 NNW 30 43 16 23 - - 1.2
 
Date/Time
EST
Temp
°C
App
Temp
°C
Dew
Point
°C
Rel
Hum
%
Delta-T
°C
Wind Press
QNH
hPa
Press
MSL
hPa
Rain since
9am
mm
Dir  Spd
km/h
Gust
km/h
Spd
kts
Gust
kts
26/11:30pm 5.2 0.1 4.2 93 0.4 NNW 20 26 11 14 - - 0.8
26/11:00pm 5.0 0.4 3.8 92 0.5 NNW 17 20 9 11 - - 0.8
26/10:30pm 5.3 0.3 3.8 90 0.6 N 19 28 10 15 - - 0.8
26/10:00pm 5.3 0.3 3.8 90 0.6 N 19 24 10 13 - - 0.8
26/09:30pm 5.4 0.4 3.6 88 0.8 N 19 28 10 15 - - 0.8
26/09:00pm 5.1 -0.9 3.4 89 0.7 N 24 30 13 16 - - 0.8
26/08:30pm 4.9 -1.1 3.4 90 0.6 N 24 30 13 16 - - 0.8
26/08:00pm 5.1 0.1 3.8 91 0.5 N 19 26 10 14 - - 0.8
26/07:30pm 5.4 -1.3 3.4 87 0.8 NNW 28 39 15 21 - - 0.6
26/07:00pm 5.8 -1.9 3.3 84 1.1 NNW 33 43 18 23 - - 0.0
26/06:30pm 6.1 -1.7 2.7 79 1.4 NNW 33 41 18 22 - - 0.0
26/06:00pm 5.8 -1.4 2.8 81 1.2 NNW 30 39 16 21 - - 0.0
26/05:30pm 6.0 -1.6 2.6 79 1.4 NNW 32 43 17 23 - - 0.0
26/05:00pm 6.1 -1.2 2.7 79 1.4 NNW 30 37 16 20 - - 0.0
26/04:30pm 6.7 -1.1 2.6 75 1.7 NNW 33 41 18 22 - - 0.0
26/04:00pm 6.9 -1.3 2.6 74 1.8 NNW 35 44 19 24 - - 0.0

Other Formats:

Comma delimited format used in spreadsheet applications
http://www.bom.gov.au/fwo/IDT60801/IDT60801.95969.axf

JavaScript Object Notation format (JSON) in row-major order
http://www.bom.gov.au/fwo/IDT60801/IDT60801.95969.json